sensor_id;sensor_type;location;lat;lon;timestamp;temperature;humidity
46508;DHT22;32223;53.654;10.014;2023-06-10T00:00:20;13.10;99.90
46508;DHT22;32223;53.654;10.014;2023-06-10T00:02:46;13.00;99.90
46508;DHT22;32223;53.654;10.014;2023-06-10T00:05:11;13.00;99.90
46508;DHT22;32223;53.654;10.014;2023-06-10T00:07:37;13.00;99.90
46508;DHT22;32223;53.654;10.014;2023-06-10T00:10:06;13.00;99.90
46508;DHT22;32223;53.654;10.014;2023-06-10T00:12:32;12.90;99.90
46508;DHT22;32223;53.654;10.014;2023-06-10T00:15:07;12.80;99.90
46508;DHT22;32223;53.654;10.014;2023-06-10T00:17:33;12.80;99.90
46508;DHT22;32223;53.654;10.014;2023-06-10T00:19:59;12.80;99.90
46508;DHT22;32223;53.654;10.014;2023-06-10T00:22:25;12.70;99.90
46508;DHT22;32223;53.654;10.014;2023-06-10T00:24:55;12.70;99.90
46508;DHT22;32223;53.654;10.014;2023-06-10T00:27:22;12.70;99.90
46508;DHT22;32223;53.654;10.014;2023-06-10T00:29:48;12.60;99.90
46508;DHT22;32223;53.654;10.014;2023-06-10T00:32:13;12.60;99.90
46508;DHT22;32223;53.654;10.014;2023-06-10T00:34:39;12.60;99.90
46508;DHT22;32223;53.654;10.014;2023-06-10T00:37:05;12.50;99.90
46508;DHT22;32223;53.654;10.014;2023-06-10T00:39:30;12.40;99.90
46508;DHT22;32223;53.654;10.014;2023-06-10T00:41:56;12.50;99.90
46508;DHT22;32223;53.654;10.014;2023-06-10T00:44:21;12.40;99.90
46508;DHT22;32223;53.654;10.014;2023-06-10T00:46:47;12.40;99.90
46508;DHT22;32223;53.654;10.014;2023-06-10T00:49:14;12.40;99.90
46508;DHT22;32223;53.654;10.014;2023-06-10T00:51:40;12.30;99.90
46508;DHT22;32223;53.654;10.014;2023-06-10T00:54:07;12.30;99.90
46508;DHT22;32223;53.654;10.014;2023-06-10T00:56:33;12.30;99.90
46508;DHT22;32223;53.654;10.014;2023-06-10T00:59:00;12.20;99.90
46508;DHT22;32223;53.654;10.014;2023-06-10T01:01:25;12.20;99.90
46508;DHT22;32223;53.654;10.014;2023-06-10T01:03:52;12.10;99.90
46508;DHT22;32223;53.654;10.014;2023-06-10T01:09:17;12.10;99.90
46508;DHT22;32223;53.654;10.014;2023-06-10T01:11:48;12.00;99.90
46508;DHT22;32223;53.654;10.014;2023-06-10T01:14:16;12.10;99.90
46508;DHT22;32223;53.654;10.014;2023-06-10T01:16:42;12.00;99.90
46508;DHT22;32223;53.654;10.014;2023-06-10T01:19:11;11.90;99.90
46508;DHT22;32223;53.654;10.014;2023-06-10T01:21:38;11.90;99.90
46508;DHT22;32223;53.654;10.014;2023-06-10T01:24:04;12.00;99.90
46508;DHT22;32223;53.654;10.014;2023-06-10T01:26:34;12.00;99.90
46508;DHT22;32223;53.654;10.014;2023-06-10T01:29:17;11.90;99.90
46508;DHT22;32223;53.654;10.014;2023-06-10T01:32:06;11.90;99.90
46508;DHT22;32223;53.654;10.014;2023-06-10T01:34:33;11.90;99.90
46508;DHT22;32223;53.654;10.014;2023-06-10T01:37:01;11.90;99.90
46508;DHT22;32223;53.654;10.014;2023-06-10T01:39:28;11.90;99.90
46508;DHT22;32223;53.654;10.014;2023-06-10T01:41:54;11.80;99.90
46508;DHT22;32223;53.654;10.014;2023-06-10T01:44:21;11.80;99.90
46508;DHT22;32223;53.654;10.014;2023-06-10T01:46:47;11.80;99.90
46508;DHT22;32223;53.654;10.014;2023-06-10T01:49:13;11.80;99.90
46508;DHT22;32223;53.654;10.014;2023-06-10T01:51:39;11.80;99.90
46508;DHT22;32223;53.654;10.014;2023-06-10T01:54:05;11.70;99.90
46508;DHT22;32223;53.654;10.014;2023-06-10T01:56:31;11.80;99.90
46508;DHT22;32223;53.654;10.014;2023-06-10T01:58:57;11.70;99.90
46508;DHT22;32223;53.654;10.014;2023-06-10T02:01:25;11.70;99.90
46508;DHT22;32223;53.654;10.014;2023-06-10T02:03:51;11.70;99.90
46508;DHT22;32223;53.654;10.014;2023-06-10T02:06:17;11.70;99.90
46508;DHT22;32223;53.654;10.014;2023-06-10T02:08:42;11.70;99.90
46508;DHT22;32223;53.654;10.014;2023-06-10T02:11:08;11.70;99.90
46508;DHT22;32223;53.654;10.014;2023-06-10T02:13:34;11.60;99.90
46508;DHT22;32223;53.654;10.014;2023-06-10T02:16:00;11.60;99.90
46508;DHT22;32223;53.654;10.014;2023-06-10T02:18:26;11.60;99.90
46508;DHT22;32223;53.654;10.014;2023-06-10T02:20:53;11.50;99.90
46508;DHT22;32223;53.654;10.014;2023-06-10T02:23:19;11.50;99.90
46508;DHT22;32223;53.654;10.014;2023-06-10T02:25:44;11.50;99.90
46508;DHT22;32223;53.654;10.014;2023-06-10T02:28:10;11.40;99.90
46508;DHT22;32223;53.654;10.014;2023-06-10T02:30:39;11.40;99.90
46508;DHT22;32223;53.654;10.014;2023-06-10T02:33:06;11.40;99.90
46508;DHT22;32223;53.654;10.014;2023-06-10T02:35:36;11.40;99.90
46508;DHT22;32223;53.654;10.014;2023-06-10T02:38:02;11.40;99.90
46508;DHT22;32223;53.654;10.014;2023-06-10T02:40:28;11.30;99.90
46508;DHT22;32223;53.654;10.014;2023-06-10T02:42:53;11.30;99.90
46508;DHT22;32223;53.654;10.014;2023-06-10T02:45:19;11.30;99.90
46508;DHT22;32223;53.654;10.014;2023-06-10T02:47:45;11.30;99.90
46508;DHT22;32223;53.654;10.014;2023-06-10T02:50:11;11.30;99.90
46508;DHT22;32223;53.654;10.014;2023-06-10T02:52:37;11.30;99.90
46508;DHT22;32223;53.654;10.014;2023-06-10T02:55:03;11.30;99.90
46508;DHT22;32223;53.654;10.014;2023-06-10T02:57:28;11.20;99.90
46508;DHT22;32223;53.654;10.014;2023-06-10T02:59:54;11.20;99.90
46508;DHT22;32223;53.654;10.014;2023-06-10T03:02:20;11.20;99.90
46508;DHT22;32223;53.654;10.014;2023-06-10T03:04:45;11.20;99.90
46508;DHT22;32223;53.654;10.014;2023-06-10T03:07:11;11.20;99.90
46508;DHT22;32223;53.654;10.014;2023-06-10T03:09:38;11.10;99.90
46508;DHT22;32223;53.654;10.014;2023-06-10T03:12:04;11.20;99.90
46508;DHT22;32223;53.654;10.014;2023-06-10T03:14:30;11.20;99.90
46508;DHT22;32223;53.654;10.014;2023-06-10T03:16:55;11.20;99.90
46508;DHT22;32223;53.654;10.014;2023-06-10T03:19:21;11.20;99.90
46508;DHT22;32223;53.654;10.014;2023-06-10T03:21:50;11.10;99.90
46508;DHT22;32223;53.654;10.014;2023-06-10T03:24:20;11.10;99.90
46508;DHT22;32223;53.654;10.014;2023-06-10T03:26:45;11.20;99.90
46508;DHT22;32223;53.654;10.014;2023-06-10T03:29:11;11.20;99.90
46508;DHT22;32223;53.654;10.014;2023-06-10T03:31:37;11.20;99.90
46508;DHT22;32223;53.654;10.014;2023-06-10T03:34:04;11.20;99.90
46508;DHT22;32223;53.654;10.014;2023-06-10T03:36:29;11.20;99.90
46508;DHT22;32223;53.654;10.014;2023-06-10T03:38:55;11.20;99.90
46508;DHT22;32223;53.654;10.014;2023-06-10T03:41:22;11.20;99.90
46508;DHT22;32223;53.654;10.014;2023-06-10T03:43:48;11.20;99.90
46508;DHT22;32223;53.654;10.014;2023-06-10T03:46:14;11.20;99.90
46508;DHT22;32223;53.654;10.014;2023-06-10T03:48:40;11.30;99.90
46508;DHT22;32223;53.654;10.014;2023-06-10T03:51:05;11.30;99.90
46508;DHT22;32223;53.654;10.014;2023-06-10T03:53:31;11.30;99.90
46508;DHT22;32223;53.654;10.014;2023-06-10T03:55:57;11.40;99.90
46508;DHT22;32223;53.654;10.014;2023-06-10T03:58:23;11.40;99.90
46508;DHT22;32223;53.654;10.014;2023-06-10T04:00:48;11.40;99.90
46508;DHT22;32223;53.654;10.014;2023-06-10T04:03:14;11.50;99.90
46508;DHT22;32223;53.654;10.014;2023-06-10T04:05:41;11.60;99.90
46508;DHT22;32223;53.654;10.014;2023-06-10T04:08:09;11.60;99.90
46508;DHT22;32223;53.654;10.014;2023-06-10T04:10:35;11.70;99.90
46508;DHT22;32223;53.654;10.014;2023-06-10T04:13:01;11.70;99.90
46508;DHT22;32223;53.654;10.014;2023-06-10T04:15:27;11.70;99.90
46508;DHT22;32223;53.654;10.014;2023-06-10T04:17:52;11.80;99.90
46508;DHT22;32223;53.654;10.014;2023-06-10T04:20:18;11.80;99.90
46508;DHT22;32223;53.654;10.014;2023-06-10T04:22:44;11.90;99.90
46508;DHT22;32223;53.654;10.014;2023-06-10T04:25:09;11.90;99.90
46508;DHT22;32223;53.654;10.014;2023-06-10T04:27:35;12.00;99.90
46508;DHT22;32223;53.654;10.014;2023-06-10T04:30:02;12.10;99.90
46508;DHT22;32223;53.654;10.014;2023-06-10T04:32:27;12.10;99.90
46508;DHT22;32223;53.654;10.014;2023-06-10T04:34:53;12.20;99.90
46508;DHT22;32223;53.654;10.014;2023-06-10T04:37:19;12.30;99.90
46508;DHT22;32223;53.654;10.014;2023-06-10T04:39:45;12.40;99.90
46508;DHT22;32223;53.654;10.014;2023-06-10T04:42:11;12.50;99.90
46508;DHT22;32223;53.654;10.014;2023-06-10T04:44:36;12.70;99.90
46508;DHT22;32223;53.654;10.014;2023-06-10T04:47:02;12.80;99.90
46508;DHT22;32223;53.654;10.014;2023-06-10T04:49:28;12.90;99.90
46508;DHT22;32223;53.654;10.014;2023-06-10T04:51:55;13.10;99.90
46508;DHT22;32223;53.654;10.014;2023-06-10T04:54:20;13.20;99.90
46508;DHT22;32223;53.654;10.014;2023-06-10T04:56:46;13.30;99.90
46508;DHT22;32223;53.654;10.014;2023-06-10T04:59:12;13.50;99.90
46508;DHT22;32223;53.654;10.014;2023-06-10T05:01:37;13.70;99.90
46508;DHT22;32223;53.654;10.014;2023-06-10T05:04:03;13.80;99.90
46508;DHT22;32223;53.654;10.014;2023-06-10T05:06:29;13.90;99.90
46508;DHT22;32223;53.654;10.014;2023-06-10T05:08:55;14.00;99.90
46508;DHT22;32223;53.654;10.014;2023-06-10T05:11:20;14.10;99.90
46508;DHT22;32223;53.654;10.014;2023-06-10T05:13:47;14.10;99.90
46508;DHT22;32223;53.654;10.014;2023-06-10T05:16:12;14.10;99.90
46508;DHT22;32223;53.654;10.014;2023-06-10T05:18:38;14.10;99.90
46508;DHT22;32223;53.654;10.014;2023-06-10T05:21:03;14.20;99.90
46508;DHT22;32223;53.654;10.014;2023-06-10T05:23:29;14.20;99.90
46508;DHT22;32223;53.654;10.014;2023-06-10T05:25:55;14.30;99.90
46508;DHT22;32223;53.654;10.014;2023-06-10T05:28:20;14.30;99.90
46508;DHT22;32223;53.654;10.014;2023-06-10T05:30:46;14.40;99.90
46508;DHT22;32223;53.654;10.014;2023-06-10T05:33:12;14.50;99.90
46508;DHT22;32223;53.654;10.014;2023-06-10T05:35:37;14.60;99.90
46508;DHT22;32223;53.654;10.014;2023-06-10T05:38:03;14.70;99.90
46508;DHT22;32223;53.654;10.014;2023-06-10T05:40:29;14.70;99.90
46508;DHT22;32223;53.654;10.014;2023-06-10T05:42:54;14.80;99.90
46508;DHT22;32223;53.654;10.014;2023-06-10T05:45:20;14.90;99.90
46508;DHT22;32223;53.654;10.014;2023-06-10T05:47:45;15.00;99.90
46508;DHT22;32223;53.654;10.014;2023-06-10T05:50:11;15.00;99.90
46508;DHT22;32223;53.654;10.014;2023-06-10T05:52:37;15.20;99.90
46508;DHT22;32223;53.654;10.014;2023-06-10T05:55:03;15.20;99.90
46508;DHT22;32223;53.654;10.014;2023-06-10T05:57:29;15.30;99.90
46508;DHT22;32223;53.654;10.014;2023-06-10T05:59:54;15.30;99.90
46508;DHT22;32223;53.654;10.014;2023-06-10T06:02:20;15.40;99.90
46508;DHT22;32223;53.654;10.014;2023-06-10T06:04:45;15.40;99.90
46508;DHT22;32223;53.654;10.014;2023-06-10T06:07:11;15.50;99.90
46508;DHT22;32223;53.654;10.014;2023-06-10T06:09:37;15.60;99.90
46508;DHT22;32223;53.654;10.014;2023-06-10T06:12:03;15.70;99.90
46508;DHT22;32223;53.654;10.014;2023-06-10T06:14:30;15.70;99.90
46508;DHT22;32223;53.654;10.014;2023-06-10T06:16:56;15.90;99.90
46508;DHT22;32223;53.654;10.014;2023-06-10T06:19:22;16.00;99.90
46508;DHT22;32223;53.654;10.014;2023-06-10T06:21:47;16.10;99.90
46508;DHT22;32223;53.654;10.014;2023-06-10T06:24:15;16.20;99.90
46508;DHT22;32223;53.654;10.014;2023-06-10T06:26:41;16.40;99.90
46508;DHT22;32223;53.654;10.014;2023-06-10T06:29:06;16.50;99.90
46508;DHT22;32223;53.654;10.014;2023-06-10T06:31:32;16.40;99.90
46508;DHT22;32223;53.654;10.014;2023-06-10T06:33:57;16.40;99.90
46508;DHT22;32223;53.654;10.014;2023-06-10T06:36:23;16.60;99.90
46508;DHT22;32223;53.654;10.014;2023-06-10T06:38:48;16.70;99.90
46508;DHT22;32223;53.654;10.014;2023-06-10T06:41:14;16.80;99.90
46508;DHT22;32223;53.654;10.014;2023-06-10T06:43:40;16.90;99.90
46508;DHT22;32223;53.654;10.014;2023-06-10T06:46:05;17.00;99.90
46508;DHT22;32223;53.654;10.014;2023-06-10T06:48:31;17.20;99.90
46508;DHT22;32223;53.654;10.014;2023-06-10T06:50:56;17.30;99.90
46508;DHT22;32223;53.654;10.014;2023-06-10T06:53:23;17.30;99.90
46508;DHT22;32223;53.654;10.014;2023-06-10T06:55:49;17.30;99.90
46508;DHT22;32223;53.654;10.014;2023-06-10T06:58:14;17.20;99.90
46508;DHT22;32223;53.654;10.014;2023-06-10T07:00:40;17.30;99.90
46508;DHT22;32223;53.654;10.014;2023-06-10T07:03:05;17.40;99.90
46508;DHT22;32223;53.654;10.014;2023-06-10T07:05:31;17.50;99.90
46508;DHT22;32223;53.654;10.014;2023-06-10T07:07:57;17.50;99.90
46508;DHT22;32223;53.654;10.014;2023-06-10T07:10:26;17.50;99.90
46508;DHT22;32223;53.654;10.014;2023-06-10T07:12:52;17.70;99.90
46508;DHT22;32223;53.654;10.014;2023-06-10T07:15:18;17.90;99.90
46508;DHT22;32223;53.654;10.014;2023-06-10T07:17:44;18.00;99.90
46508;DHT22;32223;53.654;10.014;2023-06-10T07:20:10;18.10;99.90
46508;DHT22;32223;53.654;10.014;2023-06-10T07:22:36;18.20;99.90
46508;DHT22;32223;53.654;10.014;2023-06-10T07:25:01;18.20;99.90
46508;DHT22;32223;53.654;10.014;2023-06-10T07:27:27;18.30;99.90
46508;DHT22;32223;53.654;10.014;2023-06-10T07:29:53;18.40;99.90
46508;DHT22;32223;53.654;10.014;2023-06-10T07:32:19;18.40;99.90
46508;DHT22;32223;53.654;10.014;2023-06-10T07:34:47;18.40;99.90
46508;DHT22;32223;53.654;10.014;2023-06-10T07:37:13;18.50;99.90
46508;DHT22;32223;53.654;10.014;2023-06-10T07:39:38;18.70;99.90
46508;DHT22;32223;53.654;10.014;2023-06-10T07:42:04;18.80;99.90
46508;DHT22;32223;53.654;10.014;2023-06-10T07:44:30;18.90;99.90
46508;DHT22;32223;53.654;10.014;2023-06-10T07:46:56;19.00;99.90
46508;DHT22;32223;53.654;10.014;2023-06-10T07:49:23;19.00;99.90
46508;DHT22;32223;53.654;10.014;2023-06-10T07:51:49;19.10;99.90
46508;DHT22;32223;53.654;10.014;2023-06-10T07:54:15;19.20;99.90
46508;DHT22;32223;53.654;10.014;2023-06-10T07:56:40;19.40;99.90
46508;DHT22;32223;53.654;10.014;2023-06-10T07:59:06;19.60;99.90
46508;DHT22;32223;53.654;10.014;2023-06-10T08:01:32;19.70;99.90
46508;DHT22;32223;53.654;10.014;2023-06-10T08:03:58;19.70;99.90
46508;DHT22;32223;53.654;10.014;2023-06-10T08:06:24;19.70;99.90
46508;DHT22;32223;53.654;10.014;2023-06-10T08:08:49;19.70;99.90
46508;DHT22;32223;53.654;10.014;2023-06-10T08:11:15;19.80;99.90
46508;DHT22;32223;53.654;10.014;2023-06-10T08:13:40;20.00;99.90
46508;DHT22;32223;53.654;10.014;2023-06-10T08:16:06;20.00;99.90
46508;DHT22;32223;53.654;10.014;2023-06-10T08:18:32;20.10;99.90
46508;DHT22;32223;53.654;10.014;2023-06-10T08:20:59;20.20;99.90
46508;DHT22;32223;53.654;10.014;2023-06-10T08:23:24;20.30;99.90
46508;DHT22;32223;53.654;10.014;2023-06-10T08:25:50;20.30;99.90
46508;DHT22;32223;53.654;10.014;2023-06-10T08:28:16;20.30;99.90
46508;DHT22;32223;53.654;10.014;2023-06-10T08:30:42;20.30;99.90
46508;DHT22;32223;53.654;10.014;2023-06-10T08:33:07;20.30;99.90
46508;DHT22;32223;53.654;10.014;2023-06-10T08:35:33;20.50;99.90
46508;DHT22;32223;53.654;10.014;2023-06-10T08:37:59;20.60;99.90
46508;DHT22;32223;53.654;10.014;2023-06-10T08:40:25;20.70;99.90
46508;DHT22;32223;53.654;10.014;2023-06-10T08:43:07;20.70;99.90
46508;DHT22;32223;53.654;10.014;2023-06-10T08:45:35;20.70;99.90
46508;DHT22;32223;53.654;10.014;2023-06-10T08:48:03;20.80;99.90
46508;DHT22;32223;53.654;10.014;2023-06-10T08:50:37;20.80;99.90
46508;DHT22;32223;53.654;10.014;2023-06-10T08:53:05;20.90;99.90
46508;DHT22;32223;53.654;10.014;2023-06-10T08:55:42;21.10;99.90
46508;DHT22;32223;53.654;10.014;2023-06-10T08:58:10;21.20;99.90
46508;DHT22;32223;53.654;10.014;2023-06-10T09:00:36;21.20;99.90
46508;DHT22;32223;53.654;10.014;2023-06-10T09:03:04;21.30;99.90
46508;DHT22;32223;53.654;10.014;2023-06-10T09:05:33;21.50;99.90
46508;DHT22;32223;53.654;10.014;2023-06-10T09:07:58;21.60;99.90
46508;DHT22;32223;53.654;10.014;2023-06-10T09:10:28;21.40;99.90
46508;DHT22;32223;53.654;10.014;2023-06-10T09:12:55;21.40;99.90
46508;DHT22;32223;53.654;10.014;2023-06-10T09:15:21;21.60;99.90
46508;DHT22;32223;53.654;10.014;2023-06-10T09:17:47;21.80;99.90
46508;DHT22;32223;53.654;10.014;2023-06-10T09:20:12;22.00;99.90
46508;DHT22;32223;53.654;10.014;2023-06-10T09:22:38;21.80;99.90
46508;DHT22;32223;53.654;10.014;2023-06-10T09:25:10;21.80;99.90
46508;DHT22;32223;53.654;10.014;2023-06-10T09:27:48;21.80;99.90
46508;DHT22;32223;53.654;10.014;2023-06-10T09:30:31;22.00;99.90
46508;DHT22;32223;53.654;10.014;2023-06-10T09:33:00;22.00;99.90
46508;DHT22;32223;53.654;10.014;2023-06-10T09:35:27;22.20;99.90
46508;DHT22;32223;53.654;10.014;2023-06-10T09:37:55;22.20;99.90
46508;DHT22;32223;53.654;10.014;2023-06-10T09:40:20;22.10;99.90
46508;DHT22;32223;53.654;10.014;2023-06-10T09:42:55;22.20;99.90
46508;DHT22;32223;53.654;10.014;2023-06-10T09:45:22;22.30;99.90
46508;DHT22;32223;53.654;10.014;2023-06-10T09:47:51;22.30;99.90
46508;DHT22;32223;53.654;10.014;2023-06-10T09:50:17;22.40;99.90
46508;DHT22;32223;53.654;10.014;2023-06-10T09:52:43;22.40;99.90
46508;DHT22;32223;53.654;10.014;2023-06-10T09:55:10;22.40;99.90
46508;DHT22;32223;53.654;10.014;2023-06-10T09:57:36;22.50;99.90
46508;DHT22;32223;53.654;10.014;2023-06-10T10:00:07;22.70;99.90
46508;DHT22;32223;53.654;10.014;2023-06-10T10:02:44;22.90;99.90
46508;DHT22;32223;53.654;10.014;2023-06-10T10:05:13;23.00;99.90
46508;DHT22;32223;53.654;10.014;2023-06-10T10:07:38;23.00;99.90
46508;DHT22;32223;53.654;10.014;2023-06-10T10:10:04;23.00;99.90
46508;DHT22;32223;53.654;10.014;2023-06-10T10:12:31;23.00;99.90
46508;DHT22;32223;53.654;10.014;2023-06-10T10:14:56;23.00;99.90
46508;DHT22;32223;53.654;10.014;2023-06-10T10:17:24;23.00;99.90
46508;DHT22;32223;53.654;10.014;2023-06-10T10:20:01;23.20;99.90
46508;DHT22;32223;53.654;10.014;2023-06-10T10:22:31;23.30;99.90
46508;DHT22;32223;53.654;10.014;2023-06-10T10:25:02;23.10;99.90
46508;DHT22;32223;53.654;10.014;2023-06-10T10:27:36;23.30;99.90
46508;DHT22;32223;53.654;10.014;2023-06-10T10:30:05;23.40;99.90
46508;DHT22;32223;53.654;10.014;2023-06-10T10:32:57;23.40;99.90
46508;DHT22;32223;53.654;10.014;2023-06-10T10:35:25;23.40;99.90
46508;DHT22;32223;53.654;10.014;2023-06-10T10:37:54;23.40;99.90
46508;DHT22;32223;53.654;10.014;2023-06-10T10:40:25;23.50;99.90
46508;DHT22;32223;53.654;10.014;2023-06-10T10:42:51;23.70;99.90
46508;DHT22;32223;53.654;10.014;2023-06-10T10:45:18;23.80;99.90
46508;DHT22;32223;53.654;10.014;2023-06-10T10:47:45;23.90;99.90
46508;DHT22;32223;53.654;10.014;2023-06-10T10:50:18;23.90;99.90
46508;DHT22;32223;53.654;10.014;2023-06-10T10:55:24;23.70;99.90
46508;DHT22;32223;53.654;10.014;2023-06-10T10:58:04;23.60;99.90
46508;DHT22;32223;53.654;10.014;2023-06-10T11:00:43;23.80;99.90
46508;DHT22;32223;53.654;10.014;2023-06-10T11:03:14;24.10;99.90
46508;DHT22;32223;53.654;10.014;2023-06-10T11:05:42;24.40;99.90
46508;DHT22;32223;53.654;10.014;2023-06-10T11:08:10;24.60;99.90
46508;DHT22;32223;53.654;10.014;2023-06-10T11:10:40;24.80;99.90
46508;DHT22;32223;53.654;10.014;2023-06-10T11:15:38;24.90;99.90
46508;DHT22;32223;53.654;10.014;2023-06-10T11:18:23;25.00;99.90
46508;DHT22;32223;53.654;10.014;2023-06-10T11:23:42;25.30;99.90
46508;DHT22;32223;53.654;10.014;2023-06-10T11:28:40;25.20;99.90
46508;DHT22;32223;53.654;10.014;2023-06-10T11:31:05;25.20;99.90
46508;DHT22;32223;53.654;10.014;2023-06-10T11:33:31;25.20;99.90
46508;DHT22;32223;53.654;10.014;2023-06-10T11:35:57;25.40;99.90
46508;DHT22;32223;53.654;10.014;2023-06-10T11:38:26;25.40;99.90
46508;DHT22;32223;53.654;10.014;2023-06-10T11:40:53;25.30;99.90
46508;DHT22;32223;53.654;10.014;2023-06-10T11:43:19;25.20;99.90
46508;DHT22;32223;53.654;10.014;2023-06-10T11:45:45;25.20;99.90
46508;DHT22;32223;53.654;10.014;2023-06-10T11:48:12;25.30;99.90
46508;DHT22;32223;53.654;10.014;2023-06-10T11:50:38;25.40;99.90
46508;DHT22;32223;53.654;10.014;2023-06-10T11:53:05;25.50;99.90
46508;DHT22;32223;53.654;10.014;2023-06-10T11:55:44;25.60;99.90
46508;DHT22;32223;53.654;10.014;2023-06-10T11:58:20;25.60;99.90
46508;DHT22;32223;53.654;10.014;2023-06-10T12:00:51;25.60;99.90
46508;DHT22;32223;53.654;10.014;2023-06-10T12:03:19;25.90;99.90
46508;DHT22;32223;53.654;10.014;2023-06-10T12:06:03;25.70;99.90
46508;DHT22;32223;53.654;10.014;2023-06-10T12:08:29;25.90;99.90
46508;DHT22;32223;53.654;10.014;2023-06-10T12:10:56;26.00;99.90
46508;DHT22;32223;53.654;10.014;2023-06-10T12:13:22;26.40;99.90
46508;DHT22;32223;53.654;10.014;2023-06-10T12:15:49;26.70;99.90
46508;DHT22;32223;53.654;10.014;2023-06-10T12:18:20;26.90;99.90
46508;DHT22;32223;53.654;10.014;2023-06-10T12:20:46;26.90;99.90
46508;DHT22;32223;53.654;10.014;2023-06-10T12:23:12;27.10;99.90
46508;DHT22;32223;53.654;10.014;2023-06-10T12:25:38;27.40;99.90
46508;DHT22;32223;53.654;10.014;2023-06-10T12:28:05;27.60;99.90
46508;DHT22;32223;53.654;10.014;2023-06-10T12:30:32;27.60;99.90
46508;DHT22;32223;53.654;10.014;2023-06-10T12:32:58;27.60;99.90
46508;DHT22;32223;53.654;10.014;2023-06-10T12:35:26;27.30;99.90
46508;DHT22;32223;53.654;10.014;2023-06-10T12:38:03;27.50;99.90
46508;DHT22;32223;53.654;10.014;2023-06-10T12:40:34;27.60;99.90
46508;DHT22;32223;53.654;10.014;2023-06-10T12:43:02;27.80;99.90
46508;DHT22;32223;53.654;10.014;2023-06-10T12:45:28;27.80;99.90
46508;DHT22;32223;53.654;10.014;2023-06-10T12:48:08;28.00;99.90
46508;DHT22;32223;53.654;10.014;2023-06-10T12:50:42;28.20;99.90
46508;DHT22;32223;53.654;10.014;2023-06-10T12:53:08;28.40;99.90
46508;DHT22;32223;53.654;10.014;2023-06-10T12:55:34;28.70;99.90
46508;DHT22;32223;53.654;10.014;2023-06-10T12:58:01;28.80;99.90
46508;DHT22;32223;53.654;10.014;2023-06-10T13:00:27;28.40;99.90
46508;DHT22;32223;53.654;10.014;2023-06-10T13:02:56;28.40;99.90
46508;DHT22;32223;53.654;10.014;2023-06-10T13:05:21;28.60;99.90
46508;DHT22;32223;53.654;10.014;2023-06-10T13:07:47;28.70;99.90
46508;DHT22;32223;53.654;10.014;2023-06-10T13:10:14;29.30;99.90
46508;DHT22;32223;53.654;10.014;2023-06-10T13:12:40;29.80;99.90
46508;DHT22;32223;53.654;10.014;2023-06-10T13:15:06;30.00;99.90
46508;DHT22;32223;53.654;10.014;2023-06-10T13:17:32;29.90;99.90
46508;DHT22;32223;53.654;10.014;2023-06-10T13:19:59;30.00;99.90
46508;DHT22;32223;53.654;10.014;2023-06-10T13:22:26;30.50;99.90
46508;DHT22;32223;53.654;10.014;2023-06-10T13:24:52;30.90;99.90
46508;DHT22;32223;53.654;10.014;2023-06-10T13:27:18;30.70;99.30
46508;DHT22;32223;53.654;10.014;2023-06-10T13:29:43;30.40;98.70
46508;DHT22;32223;53.654;10.014;2023-06-10T13:32:09;30.10;99.20
46508;DHT22;32223;53.654;10.014;2023-06-10T13:34:35;30.30;99.00
46508;DHT22;32223;53.654;10.014;2023-06-10T13:37:01;30.70;99.20
46508;DHT22;32223;53.654;10.014;2023-06-10T13:39:29;30.90;99.00
46508;DHT22;32223;53.654;10.014;2023-06-10T13:41:54;31.10;98.60
46508;DHT22;32223;53.654;10.014;2023-06-10T13:44:20;31.60;97.60
46508;DHT22;32223;53.654;10.014;2023-06-10T13:46:46;31.60;96.70
46508;DHT22;32223;53.654;10.014;2023-06-10T13:49:11;31.40;96.50
46508;DHT22;32223;53.654;10.014;2023-06-10T13:51:37;31.10;96.80
46508;DHT22;32223;53.654;10.014;2023-06-10T13:54:03;31.10;96.50
46508;DHT22;32223;53.654;10.014;2023-06-10T13:56:28;31.40;95.80
46508;DHT22;32223;53.654;10.014;2023-06-10T13:58:54;30.90;96.40
46508;DHT22;32223;53.654;10.014;2023-06-10T14:01:20;30.60;96.20
46508;DHT22;32223;53.654;10.014;2023-06-10T14:03:45;30.60;97.10
46508;DHT22;32223;53.654;10.014;2023-06-10T14:06:11;30.90;96.60
46508;DHT22;32223;53.654;10.014;2023-06-10T14:08:43;31.10;95.60
46508;DHT22;32223;53.654;10.014;2023-06-10T14:11:11;31.30;95.40
46508;DHT22;32223;53.654;10.014;2023-06-10T14:13:37;31.40;95.00
46508;DHT22;32223;53.654;10.014;2023-06-10T14:16:04;31.70;94.80
46508;DHT22;32223;53.654;10.014;2023-06-10T14:18:32;31.60;94.40
46508;DHT22;32223;53.654;10.014;2023-06-10T14:20:57;31.00;94.40
46508;DHT22;32223;53.654;10.014;2023-06-10T14:23:23;30.60;94.90
46508;DHT22;32223;53.654;10.014;2023-06-10T14:25:50;30.10;95.20
46508;DHT22;32223;53.654;10.014;2023-06-10T14:28:16;30.30;96.30
46508;DHT22;32223;53.654;10.014;2023-06-10T14:30:42;31.00;95.10
46508;DHT22;32223;53.654;10.014;2023-06-10T14:33:07;31.20;94.00
46508;DHT22;32223;53.654;10.014;2023-06-10T14:35:33;30.90;94.30
46508;DHT22;32223;53.654;10.014;2023-06-10T14:37:58;30.90;94.30
46508;DHT22;32223;53.654;10.014;2023-06-10T14:40:24;31.00;93.90
46508;DHT22;32223;53.654;10.014;2023-06-10T14:42:51;31.30;93.80
46508;DHT22;32223;53.654;10.014;2023-06-10T14:45:17;31.30;93.40
46508;DHT22;32223;53.654;10.014;2023-06-10T14:47:43;31.70;92.90
46508;DHT22;32223;53.654;10.014;2023-06-10T14:50:09;31.70;93.10
46508;DHT22;32223;53.654;10.014;2023-06-10T14:52:34;31.80;92.90
46508;DHT22;32223;53.654;10.014;2023-06-10T14:55:00;32.20;92.00
46508;DHT22;32223;53.654;10.014;2023-06-10T14:57:25;31.70;91.60
46508;DHT22;32223;53.654;10.014;2023-06-10T14:59:51;31.40;92.10
46508;DHT22;32223;53.654;10.014;2023-06-10T15:02:16;31.70;91.80
46508;DHT22;32223;53.654;10.014;2023-06-10T15:04:42;31.30;91.90
46508;DHT22;32223;53.654;10.014;2023-06-10T15:07:08;31.10;92.40
46508;DHT22;32223;53.654;10.014;2023-06-10T15:09:33;31.50;92.10
46508;DHT22;32223;53.654;10.014;2023-06-10T15:11:59;31.10;91.40
46508;DHT22;32223;53.654;10.014;2023-06-10T15:14:25;31.00;91.70
46508;DHT22;32223;53.654;10.014;2023-06-10T15:16:51;30.90;91.90
46508;DHT22;32223;53.654;10.014;2023-06-10T15:19:17;31.00;92.00
46508;DHT22;32223;53.654;10.014;2023-06-10T15:21:42;31.30;92.00
46508;DHT22;32223;53.654;10.014;2023-06-10T15:24:08;31.50;91.80
46508;DHT22;32223;53.654;10.014;2023-06-10T15:26:34;31.60;90.80